• Join FlightAware (Why Join?)
  • Login
  • US Flag 
10:27AM EDT


 

Airport Tracker/Info


-or-


 

Live Flight TrackerFlight Track Log ✈ DAL38 ✈ 08-Jun-2013 ✈ KMCO - KATL

Flight Track Log - Related Links

Times and Time Zones

All times are in EDT time to prevent confusion due to time zone crossing. See the DAL38 flight status page for this flight to view local times or setup timezone preferences in your user account.

Time Position Orientation Groundspeed Altitude Reporting Facility
EDT Latitude Longitude Course Direction KTS MPH feet Rate Location/Type
02:47PM 28.4167 -81.3000 North 163 188 600  Level Orlando TRACON
02:48PM 28.3833 -81.3167 204° Southwest 205 236 2,100 2,580 Climbing Orlando TRACON
02:49PM 28.3167 -81.3667 213° Southwest 274 315 5,000 3,240 Climbing Orlando TRACON
02:50PM 28.7432 -81.3419 353° North  Level FlightAware Approximate
02:50PM 28.3900 -81.4344 321° Northwest 254 292 10,400  Level Jacksonville Center
02:51PM 28.8529 -81.3539 350° North  Level FlightAware Approximate
02:51PM 28.4672 -81.4286 North 244 281 13,500  Level Jacksonville Center
02:52PM 28.9624 -81.3667 North  Level FlightAware Approximate
02:52PM 28.5464 -81.4272 North 265 305 16,000  Level Jacksonville Center
02:53PM 28.6364 -81.4497 348° North 293 337 17,500 1,200 Climbing Jacksonville Center
02:54PM 28.7389 -81.4789 346° North 338 389 18,400 1,200 Climbing Jacksonville Center
02:55PM 28.8561 -81.5106 347° North 390 449 20,000 1,620 Climbing Jacksonville Center
02:56PM 28.9778 -81.5467 345° North 427 491 21,700 1,740 Climbing Jacksonville Center
02:57PM 29.1053 -81.5808 347° North 448 516 23,500 1,620 Climbing Jacksonville Center
02:58PM 29.2039 -81.6150 343° North 457 526 25,000 1,500 Climbing Jacksonville Center
02:59PM 29.3503 -81.6514 348° North 468 539 26,600 1,500 Climbing Jacksonville Center
03:00PM 29.4842 -81.6878 347° North 475 547 28,000 1,620 Climbing Jacksonville Center
03:01PM 29.6203 -81.7267 346° North 487 560 29,900 1,620 Climbing Jacksonville Center
03:02PM 29.7542 -81.7633 347° North 487 560 31,300 1,500 Climbing Jacksonville Center
03:03PM 29.8881 -81.8025 346° North 492 566 33,000 1,740 Climbing Jacksonville Center
03:04PM 30.0219 -81.8394 347° North 486 559 34,800 960 Climbing Jacksonville Center
03:05PM 30.1539 -81.8717 348° North 486 559 35,000 60 Climbing Jacksonville Center
03:06PM 30.2836 -81.9158 344° North 486 559 35,000  Level Jacksonville Center
03:07PM 30.4178 -81.9675 342° North 498 573 35,000  Level Jacksonville Center
03:08PM 30.5453 -82.0169 342° North 498 573 35,000  Level Jacksonville Center
03:09PM 30.6878 -82.0786 340° North 498 573 35,000  Level Jacksonville Center
03:10PM 30.8156 -82.1306 341° North 491 565 35,000  Level Jacksonville Center
03:11PM 30.9411 -82.1806 341° North 486 559 35,000  Level Jacksonville Center
03:12PM 31.0686 -82.2306 341° North 486 559 35,000  Level Jacksonville Center
03:13PM 31.1964 -82.2806 341° North 486 559 35,000  Level Jacksonville Center
03:14PM 31.3239 -82.3333 341° North 486 559 35,000  Level Jacksonville Center
03:15PM 31.4367 -82.3714 344° North 477 549 35,000  Level Jacksonville Center
03:17PM 31.6489 -82.4606 340° North 480 552 35,000  Level Atlanta Center
03:18PM 31.7767 -82.5094 342° North 480 552 35,000  Level Atlanta Center
03:19PM 31.9089 -82.5636 341° North 480 552 35,000  Level Atlanta Center
03:20PM 32.0369 -82.6153 341° North 480 552 35,000  Level Atlanta Center
03:21PM 32.1628 -82.6672 341° North 486 559 35,000 -600 Level Atlanta Center
03:22PM 32.2844 -82.7342 335° Northwest 486 559 33,800 -1,680 Descending Atlanta Center
03:23PM 32.3794 -82.8361 318° Northwest 468 539 31,700 -2,220 Descending Atlanta Center
03:24PM 32.4658 -82.9383 315° West 468 539 29,400 -2,220 Descending Atlanta Center
03:25PM 32.5586 -83.0481 315° West 468 539 27,300 -2,220 Descending Atlanta Center
03:26PM 32.6514 -83.1531 316° Northwest 468 539 25,000 -1,800 Descending Atlanta Center
03:27PM 32.7419 -83.2583 316° Northwest 458 527 23,700 -1,860 Descending Atlanta Center
03:28PM 32.8281 -83.3567 316° Northwest 447 514 21,300 -2,460 Descending Atlanta Center
03:29PM 32.9100 -83.4547 315° West 429 494 18,800 -2,400 Descending Atlanta Center
03:30PM 32.9897 -83.5461 316° Northwest 415 478 16,600 -2,280 Descending Atlanta Center
03:31PM 33.0650 -83.6397 314° West 400 460 14,300 -2,100 Descending Atlanta Center
03:32PM 33.1425 -83.7286 316° Northwest 387 445 12,500 -1,200 Descending Atlanta Center
03:33PM 33.2075 -83.8056 315° West 350 403 12,000 -840 Descending Atlanta Center
03:34PM 33.2619 -83.8772 312° West 306 352 10,900 -1,260 Descending Atlanta Center
03:35PM 33.3100 -83.9519 308° West 286 329 9,500 -1,320 Descending Atlanta Center
03:36PM 33.3539 -84.0239 306° West 265 305 8,300 -1,380 Descending Atlanta Center
03:37PM 33.4019 -84.0661 324° Northwest 228 262 6,800 -1,740 Descending Atlanta Center
03:38PM 33.4583 -84.0164 36° Northeast 212 244 4,900 -1,440 Descending Atlanta Center
03:39PM 33.5144 -83.9792 29° Northeast 226 260 4,000 -480 Descending Atlanta Center
03:40PM 33.5750 -83.9814 358° North 216 249 4,000  Level Atlanta Center
03:42PM 33.6167 -84.0833 296° West 176 203 4,000  Level Atlanta TRACON
03:43PM 33.6167 -84.1333 270° West 183 211 4,000  Level Atlanta TRACON
03:44PM 33.6167 -84.2000 270° West 177 204 4,000  Level Atlanta TRACON